createdAt,value
2019-03-18T00:01:50.684Z,95377.16
2019-03-18T00:04:41.096Z,95372.81
2019-03-18T00:07:29.814Z,95373.32
2019-03-18T00:10:18.641Z,95369.08
2019-03-18T00:13:07.706Z,95371.66
2019-03-18T00:15:56.813Z,95376.34
2019-03-18T00:18:45.784Z,95385.33
2019-03-18T00:21:34.660Z,95398.59
2019-03-18T00:24:23.236Z,95409.33
2019-03-18T00:27:12.335Z,95403.38
2019-03-18T00:30:00.489Z,95405.50
2019-03-18T00:32:49.153Z,95411.11
2019-03-18T00:35:37.954Z,95402.97
2019-03-18T00:38:26.355Z,95400.77
2019-03-18T00:41:14.884Z,95397.39
2019-03-18T00:44:03.735Z,95404.30
2019-03-18T00:46:52.550Z,95410.68
2019-03-18T00:49:41.484Z,95406.41
2019-03-18T00:52:30.398Z,95417.98
2019-03-18T00:55:19.612Z,95408.59
2019-03-18T00:58:08.370Z,95419.27
2019-03-18T01:00:56.946Z,95420.11
2019-03-18T01:03:45.715Z,95436.09
2019-03-18T01:06:34.445Z,95441.29
2019-03-18T01:09:23.195Z,95448.19
2019-03-18T01:12:12.286Z,95448.63
2019-03-18T01:15:01.015Z,95452.45
2019-03-18T01:17:49.489Z,95440.45
2019-03-18T01:20:38.695Z,95442.61
2019-03-18T01:23:27.738Z,95443.50
2019-03-18T01:26:15.977Z,95439.62
2019-03-18T01:29:04.587Z,95430.61
2019-03-18T01:31:53.658Z,95428.89
2019-03-18T01:34:42.508Z,95439.62
2019-03-18T01:37:32.722Z,95433.19
2019-03-18T01:40:21.168Z,95439.21
2019-03-18T01:43:10.287Z,95427.16
2019-03-18T01:45:58.917Z,95429.77
2019-03-18T01:48:47.316Z,95436.61
2019-03-18T01:51:35.884Z,95423.27
2019-03-18T01:54:24.963Z,95436.22
2019-03-18T01:57:13.902Z,95431.07
2019-03-18T02:00:02.168Z,95428.02
2019-03-18T02:02:51.885Z,95416.03
2019-03-18T02:05:40.468Z,95414.72
2019-03-18T02:08:29.148Z,95410.39
2019-03-18T02:11:17.784Z,95420.35
2019-03-18T02:14:06.848Z,95416.88
2019-03-18T02:16:55.709Z,95416.88
2019-03-18T02:19:44.108Z,95425.02
2019-03-18T02:22:32.799Z,95419.42
2019-03-18T02:25:21.621Z,95415.08
2019-03-18T02:28:10.452Z,95407.36
2019-03-18T02:30:58.760Z,95406.52
2019-03-18T02:33:47.675Z,95411.66
2019-03-18T02:36:36.468Z,95417.72
2019-03-18T02:39:25.275Z,95412.95
2019-03-18T02:42:14.335Z,95432.33
2019-03-18T02:45:03.012Z,95424.21
2019-03-18T02:47:51.241Z,95436.19
2019-03-18T02:50:39.717Z,95440.05
2019-03-18T02:53:28.207Z,95444.80
2019-03-18T02:56:16.639Z,95447.36
2019-03-18T02:59:05.095Z,95446.49
2019-03-18T03:01:53.813Z,95446.05
2019-03-18T03:04:42.720Z,95453.34
2019-03-18T03:07:31.213Z,95455.52
2019-03-18T03:10:19.815Z,95458.50
2019-03-18T03:13:07.873Z,95455.53
2019-03-18T03:15:56.761Z,95455.97
2019-03-18T03:18:45.581Z,95455.14
2019-03-18T03:21:34.514Z,95455.58
2019-03-18T03:24:23.409Z,95451.70
2019-03-18T03:27:12.306Z,95447.41
2019-03-18T03:30:00.834Z,95447.38
2019-03-18T03:32:49.399Z,95430.17
2019-03-18T03:35:37.867Z,95427.15
2019-03-18T03:38:26.976Z,95425.02
2019-03-18T03:41:17.883Z,95426.30
2019-03-18T03:44:06.161Z,95426.28
2019-03-18T03:46:55.060Z,95424.13
2019-03-18T03:49:43.498Z,95423.66
2019-03-18T03:52:32.487Z,95440.45
2019-03-18T03:55:21.486Z,95436.20
2019-03-18T03:58:10.581Z,95428.03
2019-03-18T04:01:00.305Z,95423.75
2019-03-18T04:03:49.539Z,95423.70
2019-03-18T04:06:38.386Z,95421.48
2019-03-18T04:09:27.612Z,95418.47
2019-03-18T04:12:16.819Z,95428.72
2019-03-18T04:15:07.807Z,95440.80
2019-03-18T04:17:56.630Z,95442.87
2019-03-18T04:20:45.438Z,95442.87
2019-03-18T04:23:33.738Z,95438.62
2019-03-18T04:26:23.022Z,95426.23
2019-03-18T04:29:11.776Z,95433.91
2019-03-18T04:32:00.823Z,95434.73
2019-03-18T04:34:49.752Z,95432.98
2019-03-18T04:37:38.825Z,95442.83
2019-03-18T04:40:27.469Z,95431.71
2019-03-18T04:43:16.105Z,95441.65
2019-03-18T04:46:04.749Z,95441.77
2019-03-18T04:48:53.344Z,95441.33
2019-03-18T04:51:41.786Z,95445.17
2019-03-18T04:54:31.832Z,95441.75
2019-03-18T04:57:20.849Z,95451.19
2019-03-18T05:00:10.462Z,95461.59
2019-03-18T05:02:59.272Z,95470.22
2019-03-18T05:05:48.290Z,95468.92
2019-03-18T05:08:37.431Z,95465.48
2019-03-18T05:15:14.823Z,95461.63
2019-03-18T05:18:03.786Z,95456.00
2019-03-18T05:20:52.434Z,95450.00
2019-03-18T05:23:40.959Z,95448.67
2019-03-18T05:26:29.621Z,95451.23
2019-03-18T05:29:18.306Z,95444.36
2019-03-18T05:32:07.355Z,95447.34
2019-03-18T05:34:55.780Z,95446.48
2019-03-18T05:37:44.500Z,95445.13
2019-03-18T05:40:33.064Z,95446.83
2019-03-18T05:43:22.338Z,95455.42
2019-03-18T05:46:11.233Z,95451.56
2019-03-18T05:49:00.290Z,95454.95
2019-03-18T05:51:48.609Z,95452.77
2019-03-18T05:54:37.333Z,95446.74
2019-03-18T05:57:26.273Z,95450.58
2019-03-18T06:00:14.976Z,95460.85
2019-03-18T06:03:03.915Z,95473.30
2019-03-18T06:05:52.545Z,95480.59
2019-03-18T06:08:41.760Z,95479.34
2019-03-18T06:11:30.572Z,95484.88
2019-03-18T06:14:19.164Z,95478.47
2019-03-18T06:17:08.035Z,95471.57
2019-03-18T06:19:56.988Z,95477.62
2019-03-18T06:22:46.318Z,95491.34
2019-03-18T06:25:35.055Z,95491.73
2019-03-18T06:28:24.064Z,95499.93
2019-03-18T06:31:12.917Z,95502.88
2019-03-18T06:34:01.562Z,95498.72
2019-03-18T06:36:50.271Z,95502.52
2019-03-18T06:39:39.092Z,95503.34
2019-03-18T06:42:27.317Z,95501.17
2019-03-18T06:45:15.932Z,95501.14
2019-03-18T06:48:05.525Z,95514.47
2019-03-18T06:50:54.435Z,95524.77
2019-03-18T06:53:42.882Z,95533.47
2019-03-18T06:56:31.678Z,95535.34
2019-03-18T06:59:20.109Z,95519.75
2019-03-18T07:02:09.203Z,95521.88
2019-03-18T07:04:58.402Z,95518.87
2019-03-18T07:07:47.568Z,95522.80
2019-03-18T07:10:35.704Z,95535.70
2019-03-18T07:13:24.662Z,95541.31
2019-03-18T07:16:12.884Z,95545.97
2019-03-18T07:19:01.191Z,95552.48
2019-03-18T07:21:50.122Z,95560.17
2019-03-18T07:24:39.135Z,95558.84
2019-03-18T07:27:27.442Z,95561.94
2019-03-18T07:30:16.066Z,95561.02
2019-03-18T07:33:05.275Z,95564.95
2019-03-18T07:35:53.598Z,95571.34
2019-03-18T07:38:43.812Z,95574.79
2019-03-18T07:41:32.468Z,95575.21
2019-03-18T07:44:21.249Z,95570.53
2019-03-18T07:47:10.514Z,95564.50
2019-03-18T07:49:59.324Z,95565.78
2019-03-18T07:52:47.820Z,95573.45
2019-03-18T07:55:36.412Z,95572.22
2019-03-18T07:58:24.844Z,95571.02
2019-03-18T08:01:13.473Z,95577.05
2019-03-18T08:04:02.438Z,95583.92
2019-03-18T08:06:51.331Z,95586.45
2019-03-18T08:09:39.946Z,95591.17
2019-03-18T08:12:28.120Z,95598.52
2019-03-18T08:15:16.891Z,95603.63
2019-03-18T08:18:05.859Z,95597.58
2019-03-18T08:20:54.305Z,95601.48
2019-03-18T08:23:43.578Z,95592.83
2019-03-18T08:26:32.434Z,95597.61
2019-03-18T08:29:21.207Z,95596.28
2019-03-18T08:32:11.814Z,95606.16
2019-03-18T08:35:00.728Z,95596.70
2019-03-18T08:37:49.068Z,95608.72
2019-03-18T08:40:37.537Z,95611.33
2019-03-18T08:43:26.711Z,95611.71
2019-03-18T08:46:15.884Z,95610.86
2019-03-18T08:49:04.321Z,95607.86
2019-03-18T08:51:53.301Z,95611.83
2019-03-18T08:54:41.976Z,95618.72
2019-03-18T08:57:30.862Z,95621.65
2019-03-18T09:00:19.815Z,95634.51
2019-03-18T09:03:08.599Z,95632.25
2019-03-18T09:05:57.291Z,95625.36
2019-03-18T09:08:45.665Z,95636.16
2019-03-18T09:11:34.375Z,95628.73
2019-03-18T09:14:23.520Z,95638.73
2019-03-18T09:17:11.866Z,95630.52
2019-03-18T09:19:59.992Z,95644.70
2019-03-18T09:22:49.108Z,95649.97
2019-03-18T09:25:37.995Z,95655.22
2019-03-18T09:28:26.950Z,95652.14
2019-03-18T09:31:15.676Z,95652.53
2019-03-18T09:34:05.048Z,95658.11
2019-03-18T09:36:53.752Z,95658.84
2019-03-18T09:39:42.514Z,95655.37
2019-03-18T09:42:31.121Z,95659.89
2019-03-18T09:45:20.013Z,95643.83
2019-03-18T09:48:08.373Z,95660.55
2019-03-18T09:50:56.726Z,95662.48
2019-03-18T09:53:45.216Z,95658.88
2019-03-18T09:56:35.562Z,95661.30
2019-03-18T09:59:24.592Z,95654.23
2019-03-18T10:02:13.094Z,95658.62
2019-03-18T10:05:01.766Z,95658.78
2019-03-18T10:07:50.403Z,95668.06
2019-03-18T10:10:39.587Z,95664.58
2019-03-18T10:13:28.755Z,95662.58
2019-03-18T10:16:17.220Z,95660.67
2019-03-18T10:19:06.244Z,95660.78
2019-03-18T10:21:55.011Z,95673.70
2019-03-18T10:24:43.543Z,95671.27
2019-03-18T10:27:32.534Z,95678.64
2019-03-18T10:30:21.712Z,95672.67
2019-03-18T10:33:10.163Z,95670.48
2019-03-18T10:35:59.137Z,95671.11
2019-03-18T10:38:48.444Z,95670.73
2019-03-18T10:41:37.337Z,95667.76
2019-03-18T10:44:26.535Z,95671.77
2019-03-18T10:47:15.314Z,95672.94
2019-03-18T10:50:04.882Z,95682.72
2019-03-18T10:52:53.949Z,95694.87
2019-03-18T10:55:43.094Z,95698.69
2019-03-18T10:58:32.093Z,95709.35
2019-03-18T11:01:20.677Z,95722.50
2019-03-18T11:04:09.711Z,95735.55
2019-03-18T11:06:58.225Z,95739.31
2019-03-18T11:09:47.308Z,95738.56
2019-03-18T11:12:35.786Z,95746.78
2019-03-18T11:15:24.798Z,95747.19
2019-03-18T11:18:13.244Z,95738.99
2019-03-18T11:21:02.406Z,95744.61
2019-03-18T11:23:51.239Z,95742.80
2019-03-18T11:26:40.752Z,95737.23
2019-03-18T11:29:29.111Z,95747.17
2019-03-18T11:32:17.999Z,95743.30
2019-03-18T11:35:06.667Z,95742.82
2019-03-18T11:37:55.936Z,95731.69
2019-03-18T11:40:45.185Z,95731.22
2019-03-18T11:43:34.133Z,95733.79
2019-03-18T11:46:22.819Z,95733.69
2019-03-18T11:49:11.819Z,95738.05
2019-03-18T11:52:00.247Z,95735.05
2019-03-18T11:54:48.701Z,95733.67
2019-03-18T11:57:37.643Z,95734.48
2019-03-18T12:00:27.069Z,95741.91
2019-03-18T12:03:20.258Z,95740.67
2019-03-18T12:06:09.338Z,95738.55
2019-03-18T12:08:58.136Z,95728.18
2019-03-18T12:11:46.677Z,95730.66
2019-03-18T12:14:35.393Z,95719.73
2019-03-18T12:17:24.021Z,95716.48
2019-03-18T12:20:23.554Z,95719.34
2019-03-18T12:23:03.327Z,95709.11
2019-03-18T12:25:51.805Z,95702.63
2019-03-18T12:28:40.011Z,95699.98
2019-03-18T12:31:29.211Z,95707.14
2019-03-18T12:34:17.945Z,95702.67
2019-03-18T12:37:06.799Z,95703.90
2019-03-18T12:39:55.560Z,95695.44
2019-03-18T12:42:44.823Z,95702.81
2019-03-18T12:45:34.391Z,95700.62
2019-03-18T12:48:23.214Z,95698.25
2019-03-18T12:51:12.547Z,95697.48
2019-03-18T12:54:02.256Z,95697.35
2019-03-18T12:56:50.948Z,95709.42
2019-03-18T12:59:39.495Z,95697.52
2019-03-18T13:02:29.063Z,95700.97
2019-03-18T13:05:18.585Z,95712.55
2019-03-18T13:08:06.982Z,95711.67
2019-03-18T13:10:55.551Z,95716.78
2019-03-18T13:13:44.726Z,95711.16
2019-03-18T13:16:33.258Z,95716.73
2019-03-18T13:19:21.349Z,95712.17
2019-03-18T13:22:10.197Z,95706.58
2019-03-18T13:24:59.300Z,95702.50
2019-03-18T13:27:48.011Z,95698.95
2019-03-18T13:30:37.056Z,95705.02
2019-03-18T13:33:25.203Z,95703.63
2019-03-18T13:36:14.486Z,95698.36
2019-03-18T13:39:03.143Z,95704.16
2019-03-18T13:41:52.209Z,95702.30
2019-03-18T13:44:40.775Z,95695.89
2019-03-18T13:47:29.170Z,95700.75
2019-03-18T13:50:17.570Z,95699.98
2019-03-18T13:53:06.075Z,95703.03
2019-03-18T13:55:55.056Z,95702.48
2019-03-18T13:58:45.371Z,95698.58
2019-03-18T14:01:34.832Z,95697.23
2019-03-18T14:04:25.091Z,95693.97
2019-03-18T14:07:13.602Z,95678.75
2019-03-18T14:10:03.069Z,95687.02
2019-03-18T14:12:52.052Z,95683.47
2019-03-18T14:15:40.604Z,95693.67
2019-03-18T14:18:29.347Z,95701.54
2019-03-18T14:21:18.543Z,95688.16
2019-03-18T14:24:07.361Z,95685.36
2019-03-18T14:26:56.446Z,95691.64
2019-03-18T14:29:45.757Z,95688.55
2019-03-18T14:32:34.826Z,95703.06
2019-03-18T14:35:23.474Z,95706.59
2019-03-18T14:38:12.226Z,95707.78
2019-03-18T14:41:01.086Z,95705.16
2019-03-18T14:43:49.724Z,95705.02
2019-03-18T14:46:38.478Z,95709.36
2019-03-18T14:49:26.908Z,95717.64
2019-03-18T14:52:17.043Z,95721.48
2019-03-18T14:55:06.619Z,95729.97
2019-03-18T14:57:55.633Z,95724.84
2019-03-18T15:00:45.672Z,95718.33
2019-03-18T15:03:35.165Z,95724.73
2019-03-18T15:06:23.991Z,95725.57
2019-03-18T15:09:13.135Z,95724.08
2019-03-18T15:12:02.122Z,95724.91
2019-03-18T15:14:51.251Z,95727.93
2019-03-18T15:17:40.192Z,95730.92
2019-03-18T15:20:29.253Z,95727.61
2019-03-18T15:23:17.944Z,95745.89
2019-03-18T15:26:06.771Z,95768.60
2019-03-18T15:28:56.994Z,95765.79
2019-03-18T15:31:45.959Z,95769.42
2019-03-18T15:34:34.608Z,95778.80
2019-03-18T15:37:23.386Z,95779.30
2019-03-18T15:40:13.410Z,95779.73
2019-03-18T15:43:02.078Z,95786.73
2019-03-18T15:45:50.215Z,95787.66
2019-03-18T15:48:38.565Z,95783.06
2019-03-18T15:51:27.043Z,95785.86
2019-03-18T15:54:15.538Z,95783.89
2019-03-18T15:57:04.723Z,95778.55
2019-03-18T15:59:53.499Z,95788.47
2019-03-18T16:02:42.747Z,95782.45
2019-03-18T16:05:32.116Z,95783.16
2019-03-18T16:08:20.370Z,95787.75
2019-03-18T16:11:08.757Z,95797.29
2019-03-18T16:13:57.525Z,95810.69
2019-03-18T16:16:46.572Z,95810.93
2019-03-18T16:19:35.414Z,95810.23
2019-03-18T16:22:24.037Z,95827.48
2019-03-18T16:44:36.094Z,95845.51
2019-03-18T16:47:24.874Z,95854.58
2019-03-18T16:50:14.761Z,95844.23
2019-03-18T16:53:03.734Z,95841.64
2019-03-18T16:55:52.989Z,95847.67
2019-03-18T16:58:42.308Z,95848.52
2019-03-18T17:01:31.390Z,95858.85
2019-03-18T17:04:19.776Z,95857.13
2019-03-18T17:07:08.007Z,95864.03
2019-03-18T17:10:05.434Z,95864.88
2019-03-18T17:13:00.701Z,95867.06
2019-03-18T17:15:55.012Z,95865.33
2019-03-18T17:18:57.798Z,95870.06
2019-03-18T17:21:54.308Z,95878.24
2019-03-18T17:24:44.057Z,95880.83
2019-03-18T17:27:37.312Z,95885.15
2019-03-18T17:30:40.712Z,95882.95
2019-03-18T17:33:36.592Z,95897.17
2019-03-18T17:36:33.040Z,95898.86
2019-03-18T17:39:29.838Z,95899.27
2019-03-18T17:42:31.202Z,95900.52
2019-03-18T17:45:33.081Z,95903.55
2019-03-18T17:48:30.369Z,95900.53
2019-03-18T17:51:24.607Z,95901.42
2019-03-18T17:54:19.066Z,95911.64
2019-03-18T17:57:18.613Z,95915.50
2019-03-18T18:00:18.855Z,95915.94
2019-03-18T18:03:36.893Z,95921.84
2019-03-18T18:06:19.182Z,95920.06
2019-03-18T18:09:13.468Z,95923.95
2019-03-18T18:12:07.907Z,95927.34
2019-03-18T18:15:01.710Z,95922.25
2019-03-18T18:17:55.008Z,95920.99
2019-03-18T18:20:58.122Z,95927.90
2019-03-18T18:24:11.490Z,95925.73
2019-03-18T18:26:59.433Z,95923.66
2019-03-18T18:30:10.998Z,95924.55
2019-03-18T18:33:18.485Z,95930.93
2019-03-18T18:36:10.864Z,95930.48
2019-03-18T18:39:13.245Z,95931.36
2019-03-18T18:42:06.624Z,95932.62
2019-03-18T18:45:10.848Z,95946.45
2019-03-18T18:48:33.739Z,95952.94
2019-03-18T18:51:32.857Z,95954.64
2019-03-18T18:54:37.645Z,95954.69
2019-03-18T18:57:35.459Z,95959.89
2019-03-18T19:00:29.036Z,95964.62
2019-03-18T19:03:24.433Z,95970.21
2019-03-18T19:06:12.766Z,95971.52
2019-03-18T19:09:07.323Z,95968.90
2019-03-18T19:12:02.657Z,95970.63
2019-03-18T19:15:02.000Z,95967.94
2019-03-18T19:18:05.791Z,95970.09
2019-03-18T19:21:09.465Z,95978.23
2019-03-18T19:24:08.743Z,95991.96
2019-03-18T19:27:00.126Z,95994.53
2019-03-18T19:29:54.058Z,95999.55
2019-03-18T19:32:49.798Z,96000.84
2019-03-18T19:35:50.778Z,96000.00
2019-03-18T19:38:46.802Z,95997.50
2019-03-18T19:41:40.411Z,96003.98
2019-03-18T19:44:43.199Z,96006.47
2019-03-18T19:47:37.197Z,96018.84
2019-03-18T19:50:48.024Z,96021.77
2019-03-18T19:53:49.180Z,96026.67
2019-03-18T19:56:39.265Z,96022.02
2019-03-18T19:59:34.634Z,96027.70
2019-03-18T20:02:23.621Z,96032.13
2019-03-18T20:05:15.729Z,96037.83
2019-03-18T20:08:05.333Z,96031.36
2019-03-18T20:10:54.299Z,96043.80
2019-03-18T20:13:43.947Z,96040.87
2019-03-18T20:16:33.302Z,96043.51
2019-03-18T20:19:25.612Z,96046.56
2019-03-18T20:22:13.074Z,96048.29
2019-03-18T20:25:02.177Z,96055.15
2019-03-18T20:27:50.804Z,96049.55
2019-03-18T20:30:40.122Z,96053.05
2019-03-18T20:33:29.333Z,96059.50
2019-03-18T20:36:17.691Z,96057.79
2019-03-18T20:39:08.045Z,96054.81
2019-03-18T20:41:56.872Z,96053.16
2019-03-18T20:44:45.784Z,96059.97
2019-03-18T20:47:34.416Z,96069.07
2019-03-18T20:50:22.726Z,96066.02
2019-03-18T20:53:11.410Z,96065.60
2019-03-18T20:56:00.757Z,96071.20
2019-03-18T20:58:49.862Z,96075.48
2019-03-18T21:01:39.949Z,96076.80
2019-03-18T21:04:31.405Z,96084.55
2019-03-18T21:07:21.137Z,96080.31
2019-03-18T21:10:10.310Z,96081.58
2019-03-18T21:12:59.555Z,96080.73
2019-03-18T21:15:48.604Z,96080.66
2019-03-18T21:18:37.857Z,96088.66
2019-03-18T21:21:26.477Z,96096.26
2019-03-18T21:24:22.668Z,96098.88
2019-03-18T21:27:04.797Z,96100.98
2019-03-18T21:29:53.188Z,96102.36
2019-03-18T21:32:42.075Z,96100.70
2019-03-18T21:35:31.505Z,96103.73
2019-03-18T21:38:20.416Z,96101.20
2019-03-18T21:41:09.185Z,96094.73
2019-03-18T21:43:57.989Z,96098.55
2019-03-18T21:46:46.856Z,96091.69
2019-03-18T21:49:35.309Z,96090.45
2019-03-18T21:52:24.158Z,96094.73
2019-03-18T21:55:13.531Z,96086.16
2019-03-18T21:58:04.841Z,96085.73
2019-03-18T22:00:55.355Z,96090.73
2019-03-18T22:03:43.444Z,96096.77
2019-03-18T22:06:32.922Z,96103.16
2019-03-18T22:09:22.068Z,96102.24
2019-03-18T22:12:11.100Z,96099.25
2019-03-18T22:15:00.019Z,96104.74
2019-03-18T22:17:48.172Z,96098.42
2019-03-18T22:20:37.864Z,96105.25
2019-03-18T22:23:26.932Z,96099.66
2019-03-18T22:26:15.206Z,96102.70
2019-03-18T22:29:03.692Z,96099.76
2019-03-18T22:31:52.892Z,96092.92
2019-03-18T22:34:41.448Z,96097.55
2019-03-18T22:37:30.561Z,96097.55
2019-03-18T22:40:19.978Z,96102.61
2019-03-18T22:43:08.976Z,96104.31
2019-03-18T22:45:57.486Z,96107.78
2019-03-18T22:48:46.606Z,96112.89
2019-03-18T22:51:35.181Z,96110.70
2019-03-18T22:54:23.776Z,96114.20
2019-03-18T22:57:12.070Z,96112.53
2019-03-18T23:00:00.902Z,96115.03
2019-03-18T23:02:49.668Z,96109.48
2019-03-18T23:05:38.429Z,96112.06
2019-03-18T23:08:27.387Z,96111.19
2019-03-18T23:11:16.009Z,96107.40
2019-03-18T23:14:04.843Z,96109.59
2019-03-18T23:16:53.651Z,96106.58
2019-03-18T23:19:42.455Z,96108.73
2019-03-18T23:22:30.846Z,96109.95
2019-03-18T23:25:19.455Z,96118.17
2019-03-18T23:28:07.780Z,96123.31
2019-03-18T23:30:56.687Z,96118.17
2019-03-18T23:33:45.399Z,96115.59
2019-03-18T23:36:33.938Z,96119.90
2019-03-18T23:39:22.342Z,96125.06
2019-03-18T23:42:11.835Z,96119.91
2019-03-18T23:45:00.350Z,96118.17
2019-03-18T23:47:49.333Z,96123.67
2019-03-18T23:50:38.581Z,96129.95
2019-03-18T23:53:27.359Z,96135.06
2019-03-18T23:56:15.511Z,96129.88
2019-03-18T23:59:04.323Z,96135.89
